sensor_id;sensor_type;location;lat;lon;timestamp;temperature;humidity
52517;DHT22;59374;53.210;5.726;2022-08-24T00:01:58;19.20;99.90
52517;DHT22;59374;53.210;5.726;2022-08-24T00:04:23;19.10;99.90
52517;DHT22;59374;53.210;5.726;2022-08-24T00:06:49;19.00;99.90
52517;DHT22;59374;53.210;5.726;2022-08-24T00:09:15;19.00;99.90
52517;DHT22;59374;53.210;5.726;2022-08-24T00:11:41;19.00;99.90
52517;DHT22;59374;53.210;5.726;2022-08-24T00:14:07;19.00;99.90
52517;DHT22;59374;53.210;5.726;2022-08-24T00:16:33;19.00;99.90
52517;DHT22;59374;53.210;5.726;2022-08-24T00:19:00;19.00;99.90
52517;DHT22;59374;53.210;5.726;2022-08-24T00:21:25;18.90;99.90
52517;DHT22;59374;53.210;5.726;2022-08-24T00:23:54;18.90;99.90
52517;DHT22;59374;53.210;5.726;2022-08-24T00:26:20;18.90;99.90
52517;DHT22;59374;53.210;5.726;2022-08-24T00:28:46;18.90;99.90
52517;DHT22;59374;53.210;5.726;2022-08-24T00:31:12;18.80;99.90
52517;DHT22;59374;53.210;5.726;2022-08-24T00:33:38;18.80;99.90
52517;DHT22;59374;53.210;5.726;2022-08-24T00:36:04;18.80;99.90
52517;DHT22;59374;53.210;5.726;2022-08-24T00:38:30;18.80;99.90
52517;DHT22;59374;53.210;5.726;2022-08-24T00:40:56;18.70;99.90
52517;DHT22;59374;53.210;5.726;2022-08-24T00:43:24;18.70;99.90
52517;DHT22;59374;53.210;5.726;2022-08-24T00:48:26;18.70;99.90
52517;DHT22;59374;53.210;5.726;2022-08-24T00:50:58;18.60;99.90
52517;DHT22;59374;53.210;5.726;2022-08-24T00:53:31;18.60;99.90
52517;DHT22;59374;53.210;5.726;2022-08-24T00:56:03;18.60;99.90
52517;DHT22;59374;53.210;5.726;2022-08-24T00:58:38;18.60;99.90
52517;DHT22;59374;53.210;5.726;2022-08-24T01:01:07;18.50;99.90
52517;DHT22;59374;53.210;5.726;2022-08-24T01:03:34;18.50;99.90
52517;DHT22;59374;53.210;5.726;2022-08-24T01:06:02;18.40;99.90
52517;DHT22;59374;53.210;5.726;2022-08-24T01:08:28;18.40;99.90
52517;DHT22;59374;53.210;5.726;2022-08-24T01:11:00;18.30;99.90
52517;DHT22;59374;53.210;5.726;2022-08-24T01:13:27;18.30;99.90
52517;DHT22;59374;53.210;5.726;2022-08-24T01:15:56;18.30;99.90
52517;DHT22;59374;53.210;5.726;2022-08-24T01:18:24;18.30;99.90
52517;DHT22;59374;53.210;5.726;2022-08-24T01:24:16;18.20;99.90
52517;DHT22;59374;53.210;5.726;2022-08-24T01:26:47;18.20;99.90
52517;DHT22;59374;53.210;5.726;2022-08-24T01:29:18;18.20;99.90
52517;DHT22;59374;53.210;5.726;2022-08-24T01:31:45;18.20;99.90
52517;DHT22;59374;53.210;5.726;2022-08-24T01:34:10;18.20;99.90
52517;DHT22;59374;53.210;5.726;2022-08-24T01:36:43;18.20;99.90
52517;DHT22;59374;53.210;5.726;2022-08-24T01:39:14;18.20;99.90
52517;DHT22;59374;53.210;5.726;2022-08-24T01:41:41;18.20;99.90
52517;DHT22;59374;53.210;5.726;2022-08-24T01:44:07;18.20;99.90
52517;DHT22;59374;53.210;5.726;2022-08-24T01:46:34;18.20;99.90
52517;DHT22;59374;53.210;5.726;2022-08-24T01:49:00;18.20;99.90
52517;DHT22;59374;53.210;5.726;2022-08-24T01:51:31;18.20;99.90
52517;DHT22;59374;53.210;5.726;2022-08-24T01:54:01;18.20;99.90
52517;DHT22;59374;53.210;5.726;2022-08-24T01:56:29;18.10;99.90
52517;DHT22;59374;53.210;5.726;2022-08-24T01:58:56;18.10;99.90
52517;DHT22;59374;53.210;5.726;2022-08-24T02:01:22;18.10;99.90
52517;DHT22;59374;53.210;5.726;2022-08-24T02:03:48;18.00;99.90
52517;DHT22;59374;53.210;5.726;2022-08-24T02:06:14;18.00;99.90
52517;DHT22;59374;53.210;5.726;2022-08-24T02:08:40;18.00;99.90
52517;DHT22;59374;53.210;5.726;2022-08-24T02:11:07;18.00;99.90
52517;DHT22;59374;53.210;5.726;2022-08-24T02:13:34;18.00;99.90
52517;DHT22;59374;53.210;5.726;2022-08-24T02:16:00;18.00;99.90
52517;DHT22;59374;53.210;5.726;2022-08-24T02:18:26;17.90;99.90
52517;DHT22;59374;53.210;5.726;2022-08-24T02:20:52;17.90;99.90
52517;DHT22;59374;53.210;5.726;2022-08-24T02:23:19;17.90;99.90
52517;DHT22;59374;53.210;5.726;2022-08-24T02:25:45;17.90;99.90
52517;DHT22;59374;53.210;5.726;2022-08-24T02:28:12;17.90;99.90
52517;DHT22;59374;53.210;5.726;2022-08-24T02:30:39;17.80;99.90
52517;DHT22;59374;53.210;5.726;2022-08-24T02:33:05;17.80;99.90
52517;DHT22;59374;53.210;5.726;2022-08-24T02:35:32;17.80;99.90
52517;DHT22;59374;53.210;5.726;2022-08-24T02:37:58;17.80;99.90
52517;DHT22;59374;53.210;5.726;2022-08-24T02:40:24;17.80;99.90
52517;DHT22;59374;53.210;5.726;2022-08-24T02:42:51;17.70;99.90
52517;DHT22;59374;53.210;5.726;2022-08-24T02:45:16;17.80;99.90
52517;DHT22;59374;53.210;5.726;2022-08-24T02:47:42;17.70;99.90
52517;DHT22;59374;53.210;5.726;2022-08-24T02:50:12;17.80;99.90
52517;DHT22;59374;53.210;5.726;2022-08-24T02:52:40;17.80;99.90
52517;DHT22;59374;53.210;5.726;2022-08-24T02:55:07;17.80;99.90
52517;DHT22;59374;53.210;5.726;2022-08-24T02:57:33;17.90;99.90
52517;DHT22;59374;53.210;5.726;2022-08-24T02:59:59;18.00;99.90
52517;DHT22;59374;53.210;5.726;2022-08-24T03:02:25;18.00;99.90
52517;DHT22;59374;53.210;5.726;2022-08-24T03:04:51;18.10;99.90
52517;DHT22;59374;53.210;5.726;2022-08-24T03:07:18;18.10;99.90
52517;DHT22;59374;53.210;5.726;2022-08-24T03:09:44;18.10;99.90
52517;DHT22;59374;53.210;5.726;2022-08-24T03:12:10;18.10;99.90
52517;DHT22;59374;53.210;5.726;2022-08-24T03:14:35;18.10;99.90
52517;DHT22;59374;53.210;5.726;2022-08-24T03:17:01;18.00;99.90
52517;DHT22;59374;53.210;5.726;2022-08-24T03:19:27;18.00;99.90
52517;DHT22;59374;53.210;5.726;2022-08-24T03:21:53;18.00;99.90
52517;DHT22;59374;53.210;5.726;2022-08-24T03:24:20;17.90;99.90
52517;DHT22;59374;53.210;5.726;2022-08-24T03:26:46;17.90;99.90
52517;DHT22;59374;53.210;5.726;2022-08-24T03:29:13;17.90;99.90
52517;DHT22;59374;53.210;5.726;2022-08-24T03:31:38;17.90;99.90
52517;DHT22;59374;53.210;5.726;2022-08-24T03:34:04;17.90;99.90
52517;DHT22;59374;53.210;5.726;2022-08-24T03:36:30;17.80;99.90
52517;DHT22;59374;53.210;5.726;2022-08-24T03:38:56;17.80;99.90
52517;DHT22;59374;53.210;5.726;2022-08-24T03:41:22;17.80;99.90
52517;DHT22;59374;53.210;5.726;2022-08-24T03:43:47;17.80;99.90
52517;DHT22;59374;53.210;5.726;2022-08-24T03:46:20;17.80;99.90
52517;DHT22;59374;53.210;5.726;2022-08-24T03:48:48;17.70;99.90
52517;DHT22;59374;53.210;5.726;2022-08-24T03:51:16;17.70;99.90
52517;DHT22;59374;53.210;5.726;2022-08-24T03:53:42;17.70;99.90
52517;DHT22;59374;53.210;5.726;2022-08-24T03:56:09;17.70;99.90
52517;DHT22;59374;53.210;5.726;2022-08-24T03:58:39;17.70;99.90
52517;DHT22;59374;53.210;5.726;2022-08-24T04:01:07;17.60;99.90
52517;DHT22;59374;53.210;5.726;2022-08-24T04:03:37;17.70;99.90
52517;DHT22;59374;53.210;5.726;2022-08-24T04:06:04;17.70;99.90
52517;DHT22;59374;53.210;5.726;2022-08-24T04:08:30;17.60;99.90
52517;DHT22;59374;53.210;5.726;2022-08-24T04:10:56;17.60;99.90
52517;DHT22;59374;53.210;5.726;2022-08-24T04:13:22;17.60;99.90
52517;DHT22;59374;53.210;5.726;2022-08-24T04:15:47;17.60;99.90
52517;DHT22;59374;53.210;5.726;2022-08-24T04:18:15;17.60;99.90
52517;DHT22;59374;53.210;5.726;2022-08-24T04:20:42;17.50;99.90
52517;DHT22;59374;53.210;5.726;2022-08-24T04:23:09;17.50;99.90
52517;DHT22;59374;53.210;5.726;2022-08-24T04:25:43;17.50;99.90
52517;DHT22;59374;53.210;5.726;2022-08-24T04:28:10;17.60;99.90
52517;DHT22;59374;53.210;5.726;2022-08-24T04:30:40;17.50;99.90
52517;DHT22;59374;53.210;5.726;2022-08-24T04:33:06;17.50;99.90
52517;DHT22;59374;53.210;5.726;2022-08-24T04:35:36;17.50;99.90
52517;DHT22;59374;53.210;5.726;2022-08-24T04:38:02;17.50;99.90
52517;DHT22;59374;53.210;5.726;2022-08-24T04:40:28;17.50;99.90
52517;DHT22;59374;53.210;5.726;2022-08-24T04:42:54;17.50;99.90
52517;DHT22;59374;53.210;5.726;2022-08-24T04:45:20;17.50;99.90
52517;DHT22;59374;53.210;5.726;2022-08-24T04:47:45;17.50;99.90
52517;DHT22;59374;53.210;5.726;2022-08-24T04:50:11;17.50;99.90
52517;DHT22;59374;53.210;5.726;2022-08-24T04:52:37;17.50;99.90
52517;DHT22;59374;53.210;5.726;2022-08-24T04:55:03;17.50;99.90
52517;DHT22;59374;53.210;5.726;2022-08-24T04:57:29;17.50;99.90
52517;DHT22;59374;53.210;5.726;2022-08-24T04:59:55;17.50;99.90
52517;DHT22;59374;53.210;5.726;2022-08-24T05:02:21;17.60;99.90
52517;DHT22;59374;53.210;5.726;2022-08-24T05:04:47;17.60;99.90
52517;DHT22;59374;53.210;5.726;2022-08-24T05:07:12;17.60;99.90
52517;DHT22;59374;53.210;5.726;2022-08-24T05:09:38;17.60;99.90
52517;DHT22;59374;53.210;5.726;2022-08-24T05:12:04;17.70;99.90
52517;DHT22;59374;53.210;5.726;2022-08-24T05:14:30;17.70;99.90
52517;DHT22;59374;53.210;5.726;2022-08-24T05:16:55;17.80;99.90
52517;DHT22;59374;53.210;5.726;2022-08-24T05:19:22;17.80;99.90
52517;DHT22;59374;53.210;5.726;2022-08-24T05:21:47;17.80;99.90
52517;DHT22;59374;53.210;5.726;2022-08-24T05:24:13;17.80;99.90
52517;DHT22;59374;53.210;5.726;2022-08-24T05:26:39;17.90;99.90
52517;DHT22;59374;53.210;5.726;2022-08-24T05:29:05;17.90;99.90
52517;DHT22;59374;53.210;5.726;2022-08-24T05:31:31;18.00;99.90
52517;DHT22;59374;53.210;5.726;2022-08-24T05:33:59;18.00;99.90
52517;DHT22;59374;53.210;5.726;2022-08-24T05:36:31;18.00;99.90
52517;DHT22;59374;53.210;5.726;2022-08-24T05:39:00;18.10;99.90
52517;DHT22;59374;53.210;5.726;2022-08-24T05:41:27;18.10;99.90
52517;DHT22;59374;53.210;5.726;2022-08-24T05:43:53;18.20;99.90
52517;DHT22;59374;53.210;5.726;2022-08-24T05:46:19;18.20;99.90
52517;DHT22;59374;53.210;5.726;2022-08-24T05:48:45;18.30;99.90
52517;DHT22;59374;53.210;5.726;2022-08-24T05:51:11;18.30;99.90
52517;DHT22;59374;53.210;5.726;2022-08-24T05:53:38;18.40;99.90
52517;DHT22;59374;53.210;5.726;2022-08-24T05:56:12;18.40;99.90
52517;DHT22;59374;53.210;5.726;2022-08-24T05:58:38;18.50;99.90
52517;DHT22;59374;53.210;5.726;2022-08-24T06:01:09;18.50;99.90
52517;DHT22;59374;53.210;5.726;2022-08-24T06:03:36;18.60;99.90
52517;DHT22;59374;53.210;5.726;2022-08-24T06:06:03;18.60;99.90
52517;DHT22;59374;53.210;5.726;2022-08-24T06:08:29;18.70;99.90
52517;DHT22;59374;53.210;5.726;2022-08-24T06:10:55;18.70;99.90
52517;DHT22;59374;53.210;5.726;2022-08-24T06:13:21;18.80;99.90
52517;DHT22;59374;53.210;5.726;2022-08-24T06:15:47;18.90;99.90
52517;DHT22;59374;53.210;5.726;2022-08-24T06:18:12;18.90;99.90
52517;DHT22;59374;53.210;5.726;2022-08-24T06:20:41;19.00;99.90
52517;DHT22;59374;53.210;5.726;2022-08-24T06:23:07;19.10;99.90
52517;DHT22;59374;53.210;5.726;2022-08-24T06:25:33;19.20;99.90
52517;DHT22;59374;53.210;5.726;2022-08-24T06:28:17;19.20;99.90
52517;DHT22;59374;53.210;5.726;2022-08-24T06:30:43;19.30;99.90
52517;DHT22;59374;53.210;5.726;2022-08-24T06:33:09;19.40;99.90
52517;DHT22;59374;53.210;5.726;2022-08-24T06:35:34;19.50;99.90
52517;DHT22;59374;53.210;5.726;2022-08-24T06:38:00;19.50;99.90
52517;DHT22;59374;53.210;5.726;2022-08-24T06:40:26;19.60;99.90
52517;DHT22;59374;53.210;5.726;2022-08-24T06:42:52;19.70;99.90
52517;DHT22;59374;53.210;5.726;2022-08-24T06:45:18;19.80;99.90
52517;DHT22;59374;53.210;5.726;2022-08-24T06:47:44;19.90;99.90
52517;DHT22;59374;53.210;5.726;2022-08-24T06:50:10;20.00;99.90
52517;DHT22;59374;53.210;5.726;2022-08-24T06:52:35;20.10;99.90
52517;DHT22;59374;53.210;5.726;2022-08-24T06:55:04;20.20;99.90
52517;DHT22;59374;53.210;5.726;2022-08-24T06:57:30;20.30;99.90
52517;DHT22;59374;53.210;5.726;2022-08-24T06:59:56;20.40;99.90
52517;DHT22;59374;53.210;5.726;2022-08-24T07:02:21;20.50;99.90
52517;DHT22;59374;53.210;5.726;2022-08-24T07:04:47;20.60;99.90
52517;DHT22;59374;53.210;5.726;2022-08-24T07:07:13;20.70;99.90
52517;DHT22;59374;53.210;5.726;2022-08-24T07:09:39;20.80;99.90
52517;DHT22;59374;53.210;5.726;2022-08-24T07:12:05;20.90;99.90
52517;DHT22;59374;53.210;5.726;2022-08-24T07:14:30;21.00;99.90
52517;DHT22;59374;53.210;5.726;2022-08-24T07:16:56;21.10;99.90
52517;DHT22;59374;53.210;5.726;2022-08-24T07:19:22;21.20;99.90
52517;DHT22;59374;53.210;5.726;2022-08-24T07:21:47;21.30;99.90
52517;DHT22;59374;53.210;5.726;2022-08-24T07:24:13;21.40;99.90
52517;DHT22;59374;53.210;5.726;2022-08-24T07:26:39;21.50;99.90
52517;DHT22;59374;53.210;5.726;2022-08-24T07:29:09;21.60;99.90
52517;DHT22;59374;53.210;5.726;2022-08-24T07:31:38;21.70;99.90
52517;DHT22;59374;53.210;5.726;2022-08-24T07:34:06;21.80;99.90
52517;DHT22;59374;53.210;5.726;2022-08-24T07:36:34;21.90;99.90
52517;DHT22;59374;53.210;5.726;2022-08-24T07:38:59;22.00;99.90
52517;DHT22;59374;53.210;5.726;2022-08-24T07:41:26;22.10;99.90
52517;DHT22;59374;53.210;5.726;2022-08-24T07:43:53;22.30;99.90
52517;DHT22;59374;53.210;5.726;2022-08-24T07:46:21;22.40;99.90
52517;DHT22;59374;53.210;5.726;2022-08-24T07:48:46;22.60;99.90
52517;DHT22;59374;53.210;5.726;2022-08-24T07:51:14;22.80;99.90
52517;DHT22;59374;53.210;5.726;2022-08-24T07:53:40;23.10;99.90
52517;DHT22;59374;53.210;5.726;2022-08-24T07:56:07;23.40;99.90
52517;DHT22;59374;53.210;5.726;2022-08-24T07:58:33;23.70;99.90
52517;DHT22;59374;53.210;5.726;2022-08-24T08:00:59;23.90;99.90
52517;DHT22;59374;53.210;5.726;2022-08-24T08:03:25;24.20;99.90
52517;DHT22;59374;53.210;5.726;2022-08-24T08:05:59;24.30;99.90
52517;DHT22;59374;53.210;5.726;2022-08-24T08:08:26;24.20;99.90
52517;DHT22;59374;53.210;5.726;2022-08-24T08:10:52;23.90;99.90
52517;DHT22;59374;53.210;5.726;2022-08-24T08:13:18;23.70;99.90
52517;DHT22;59374;53.210;5.726;2022-08-24T08:15:44;23.60;99.90
52517;DHT22;59374;53.210;5.726;2022-08-24T08:18:11;23.40;99.90
52517;DHT22;59374;53.210;5.726;2022-08-24T08:20:38;23.40;99.90
52517;DHT22;59374;53.210;5.726;2022-08-24T08:23:05;23.40;99.90
52517;DHT22;59374;53.210;5.726;2022-08-24T08:25:54;23.50;99.90
52517;DHT22;59374;53.210;5.726;2022-08-24T08:28:23;23.50;99.90
52517;DHT22;59374;53.210;5.726;2022-08-24T08:30:48;23.60;99.90
52517;DHT22;59374;53.210;5.726;2022-08-24T08:33:14;23.70;99.90
52517;DHT22;59374;53.210;5.726;2022-08-24T08:35:40;23.70;99.90
52517;DHT22;59374;53.210;5.726;2022-08-24T08:38:07;23.80;99.90
52517;DHT22;59374;53.210;5.726;2022-08-24T08:43:53;24.40;99.90
52517;DHT22;59374;53.210;5.726;2022-08-24T08:52:32;24.70;99.90
52517;DHT22;59374;53.210;5.726;2022-08-24T09:00:21;24.90;99.90
52517;DHT22;59374;53.210;5.726;2022-08-24T09:20:15;26.50;99.90
52517;DHT22;59374;53.210;5.726;2022-08-24T09:22:45;26.80;99.90
52517;DHT22;59374;53.210;5.726;2022-08-24T09:25:25;27.00;99.90
52517;DHT22;59374;53.210;5.726;2022-08-24T09:34:05;27.20;99.90
52517;DHT22;59374;53.210;5.726;2022-08-24T09:59:25;26.70;99.90
52517;DHT22;59374;53.210;5.726;2022-08-24T10:13:31;27.10;99.90
52517;DHT22;59374;53.210;5.726;2022-08-24T10:37:03;27.60;99.90
52517;DHT22;59374;53.210;5.726;2022-08-24T10:39:23;27.70;99.90
52517;DHT22;59374;53.210;5.726;2022-08-24T10:42:39;27.90;99.90
52517;DHT22;59374;53.210;5.726;2022-08-24T10:45:45;27.70;99.90
52517;DHT22;59374;53.210;5.726;2022-08-24T10:53:26;27.60;99.90
52517;DHT22;59374;53.210;5.726;2022-08-24T11:01:35;27.90;99.90
52517;DHT22;59374;53.210;5.726;2022-08-24T11:04:12;28.20;99.90
52517;DHT22;59374;53.210;5.726;2022-08-24T11:06:42;28.10;99.90
52517;DHT22;59374;53.210;5.726;2022-08-24T11:09:14;28.10;99.90
52517;DHT22;59374;53.210;5.726;2022-08-24T11:11:46;28.30;99.90
52517;DHT22;59374;53.210;5.726;2022-08-24T11:16:43;28.70;99.90
52517;DHT22;59374;53.210;5.726;2022-08-24T11:19:16;28.90;99.90
52517;DHT22;59374;53.210;5.726;2022-08-24T11:21:55;28.90;99.90
52517;DHT22;59374;53.210;5.726;2022-08-24T11:24:37;28.90;99.90
52517;DHT22;59374;53.210;5.726;2022-08-24T11:27:18;28.70;99.90
52517;DHT22;59374;53.210;5.726;2022-08-24T11:35:25;28.50;99.90
52517;DHT22;59374;53.210;5.726;2022-08-24T11:38:07;28.50;99.90
52517;DHT22;59374;53.210;5.726;2022-08-24T11:40:38;28.70;99.90
52517;DHT22;59374;53.210;5.726;2022-08-24T11:49:14;29.80;99.90
52517;DHT22;59374;53.210;5.726;2022-08-24T11:52:02;30.20;99.90
52517;DHT22;59374;53.210;5.726;2022-08-24T12:02:33;30.30;99.90
52517;DHT22;59374;53.210;5.726;2022-08-24T12:13:07;30.40;99.90
52517;DHT22;59374;53.210;5.726;2022-08-24T12:15:47;30.60;99.90
52517;DHT22;59374;53.210;5.726;2022-08-24T12:18:27;30.80;99.90
52517;DHT22;59374;53.210;5.726;2022-08-24T12:20:55;30.90;99.90
52517;DHT22;59374;53.210;5.726;2022-08-24T12:26:34;31.10;99.90
52517;DHT22;59374;53.210;5.726;2022-08-24T12:28:55;31.00;99.90
52517;DHT22;59374;53.210;5.726;2022-08-24T12:33:56;30.90;99.80
52517;DHT22;59374;53.210;5.726;2022-08-24T12:36:35;30.90;99.50
52517;DHT22;59374;53.210;5.726;2022-08-24T12:39:11;30.90;99.90
52517;DHT22;59374;53.210;5.726;2022-08-24T12:41:51;30.80;99.90
52517;DHT22;59374;53.210;5.726;2022-08-24T12:44:24;31.10;99.70
52517;DHT22;59374;53.210;5.726;2022-08-24T12:46:52;31.20;99.70
52517;DHT22;59374;53.210;5.726;2022-08-24T12:49:39;31.50;99.90
52517;DHT22;59374;53.210;5.726;2022-08-24T12:57:56;32.20;99.30
52517;DHT22;59374;53.210;5.726;2022-08-24T13:00:30;32.80;98.20
52517;DHT22;59374;53.210;5.726;2022-08-24T13:03:02;33.10;98.30
52517;DHT22;59374;53.210;5.726;2022-08-24T13:05:41;32.80;97.90
52517;DHT22;59374;53.210;5.726;2022-08-24T13:08:21;32.80;96.90
52517;DHT22;59374;53.210;5.726;2022-08-24T13:11:06;32.50;97.00
52517;DHT22;59374;53.210;5.726;2022-08-24T13:13:45;32.30;97.50
52517;DHT22;59374;53.210;5.726;2022-08-24T13:21:56;31.60;98.60
52517;DHT22;59374;53.210;5.726;2022-08-24T13:32:41;32.70;97.90
52517;DHT22;59374;53.210;5.726;2022-08-24T13:38:30;33.30;96.40
52517;DHT22;59374;53.210;5.726;2022-08-24T13:41:02;33.50;96.60
52517;DHT22;59374;53.210;5.726;2022-08-24T13:43:50;33.70;96.00
52517;DHT22;59374;53.210;5.726;2022-08-24T13:49:50;34.30;95.80
52517;DHT22;59374;53.210;5.726;2022-08-24T13:57:41;34.80;95.50
52517;DHT22;59374;53.210;5.726;2022-08-24T14:00:15;35.20;95.30
52517;DHT22;59374;53.210;5.726;2022-08-24T14:03:09;35.60;95.30
52517;DHT22;59374;53.210;5.726;2022-08-24T14:06:03;36.10;94.70
52517;DHT22;59374;53.210;5.726;2022-08-24T14:13:57;36.50;92.70
52517;DHT22;59374;53.210;5.726;2022-08-24T14:25:23;36.20;93.80
52517;DHT22;59374;53.210;5.726;2022-08-24T14:28:34;37.00;93.60
52517;DHT22;59374;53.210;5.726;2022-08-24T14:30:43;37.60;92.90
52517;DHT22;59374;53.210;5.726;2022-08-24T14:33:25;37.70;93.60
52517;DHT22;59374;53.210;5.726;2022-08-24T14:38:55;36.90;93.90
52517;DHT22;59374;53.210;5.726;2022-08-24T14:46:58;36.40;94.10
52517;DHT22;59374;53.210;5.726;2022-08-24T14:58:03;31.10;99.20
52517;DHT22;59374;53.210;5.726;2022-08-24T15:04:05;31.00;99.90
52517;DHT22;59374;53.210;5.726;2022-08-24T15:09:07;32.00;99.30
52517;DHT22;59374;53.210;5.726;2022-08-24T15:11:35;31.50;99.70
52517;DHT22;59374;53.210;5.726;2022-08-24T15:14:06;31.20;99.90
52517;DHT22;59374;53.210;5.726;2022-08-24T15:16:49;31.30;99.90
52517;DHT22;59374;53.210;5.726;2022-08-24T15:19:50;31.30;99.80
52517;DHT22;59374;53.210;5.726;2022-08-24T15:22:25;30.80;99.90
52517;DHT22;59374;53.210;5.726;2022-08-24T15:28:28;29.80;99.90
52517;DHT22;59374;53.210;5.726;2022-08-24T15:31:04;30.10;99.90
52517;DHT22;59374;53.210;5.726;2022-08-24T15:33:32;29.90;99.90
52517;DHT22;59374;53.210;5.726;2022-08-24T15:36:16;29.90;99.90
52517;DHT22;59374;53.210;5.726;2022-08-24T15:38:42;29.70;99.90
52517;DHT22;59374;53.210;5.726;2022-08-24T15:43:50;30.00;99.90
52517;DHT22;59374;53.210;5.726;2022-08-24T15:46:21;30.30;99.90
52517;DHT22;59374;53.210;5.726;2022-08-24T15:48:48;30.70;99.90
52517;DHT22;59374;53.210;5.726;2022-08-24T15:51:51;31.30;99.90
52517;DHT22;59374;53.210;5.726;2022-08-24T15:57:10;31.90;99.80
52517;DHT22;59374;53.210;5.726;2022-08-24T15:59:54;31.40;99.90
52517;DHT22;59374;53.210;5.726;2022-08-24T16:02:29;30.90;99.90
52517;DHT22;59374;53.210;5.726;2022-08-24T16:07:32;30.40;99.90
52517;DHT22;59374;53.210;5.726;2022-08-24T16:10:10;30.40;99.90
52517;DHT22;59374;53.210;5.726;2022-08-24T16:12:37;30.00;99.90
52517;DHT22;59374;53.210;5.726;2022-08-24T16:15:13;29.70;99.90
52517;DHT22;59374;53.210;5.726;2022-08-24T16:17:39;29.60;99.90
52517;DHT22;59374;53.210;5.726;2022-08-24T16:20:32;29.30;99.90
52517;DHT22;59374;53.210;5.726;2022-08-24T16:22:57;29.20;99.90
52517;DHT22;59374;53.210;5.726;2022-08-24T16:25:30;29.40;99.90
52517;DHT22;59374;53.210;5.726;2022-08-24T16:30:49;30.00;99.90
52517;DHT22;59374;53.210;5.726;2022-08-24T16:36:01;31.20;99.90
52517;DHT22;59374;53.210;5.726;2022-08-24T16:38:27;30.80;99.90
52517;DHT22;59374;53.210;5.726;2022-08-24T16:41:00;30.60;99.90
52517;DHT22;59374;53.210;5.726;2022-08-24T16:43:27;30.00;99.90
52517;DHT22;59374;53.210;5.726;2022-08-24T16:45:53;29.60;99.90
52517;DHT22;59374;53.210;5.726;2022-08-24T16:48:19;29.30;99.90
52517;DHT22;59374;53.210;5.726;2022-08-24T16:50:46;28.90;99.90
52517;DHT22;59374;53.210;5.726;2022-08-24T16:53:12;28.70;99.90
52517;DHT22;59374;53.210;5.726;2022-08-24T16:55:38;28.50;99.90
52517;DHT22;59374;53.210;5.726;2022-08-24T16:58:04;28.50;99.90
52517;DHT22;59374;53.210;5.726;2022-08-24T17:00:30;28.60;99.90
52517;DHT22;59374;53.210;5.726;2022-08-24T17:02:55;29.10;99.90
52517;DHT22;59374;53.210;5.726;2022-08-24T17:05:21;29.60;99.90
52517;DHT22;59374;53.210;5.726;2022-08-24T17:07:47;29.80;99.90
52517;DHT22;59374;53.210;5.726;2022-08-24T17:10:16;30.00;99.90
52517;DHT22;59374;53.210;5.726;2022-08-24T17:12:42;30.30;99.90
52517;DHT22;59374;53.210;5.726;2022-08-24T17:15:09;30.60;99.90
52517;DHT22;59374;53.210;5.726;2022-08-24T17:17:36;30.80;99.90
52517;DHT22;59374;53.210;5.726;2022-08-24T17:20:06;30.90;99.90
52517;DHT22;59374;53.210;5.726;2022-08-24T17:22:34;31.00;99.90
52517;DHT22;59374;53.210;5.726;2022-08-24T17:25:00;31.00;99.90
52517;DHT22;59374;53.210;5.726;2022-08-24T17:27:30;31.20;99.90
52517;DHT22;59374;53.210;5.726;2022-08-24T17:29:58;31.40;99.90
52517;DHT22;59374;53.210;5.726;2022-08-24T17:32:25;31.70;99.90
52517;DHT22;59374;53.210;5.726;2022-08-24T17:34:51;31.70;99.90
52517;DHT22;59374;53.210;5.726;2022-08-24T17:37:17;31.80;99.90
52517;DHT22;59374;53.210;5.726;2022-08-24T17:39:43;31.80;99.50
52517;DHT22;59374;53.210;5.726;2022-08-24T17:42:09;31.50;99.30
52517;DHT22;59374;53.210;5.726;2022-08-24T17:44:35;31.10;99.40
52517;DHT22;59374;53.210;5.726;2022-08-24T17:47:02;30.60;99.40
52517;DHT22;59374;53.210;5.726;2022-08-24T17:49:30;30.00;99.90
52517;DHT22;59374;53.210;5.726;2022-08-24T17:51:56;29.40;99.90
52517;DHT22;59374;53.210;5.726;2022-08-24T17:54:23;28.90;99.90
52517;DHT22;59374;53.210;5.726;2022-08-24T17:56:50;28.40;99.90
52517;DHT22;59374;53.210;5.726;2022-08-24T17:59:24;28.00;99.90
52517;DHT22;59374;53.210;5.726;2022-08-24T18:02:05;27.60;99.90
52517;DHT22;59374;53.210;5.726;2022-08-24T18:04:32;27.30;99.90
52517;DHT22;59374;53.210;5.726;2022-08-24T18:07:02;26.90;99.90
52517;DHT22;59374;53.210;5.726;2022-08-24T18:12:03;26.40;99.90
52517;DHT22;59374;53.210;5.726;2022-08-24T18:14:30;26.20;99.90
52517;DHT22;59374;53.210;5.726;2022-08-24T18:16:57;25.90;99.90
52517;DHT22;59374;53.210;5.726;2022-08-24T18:19:25;25.70;99.90
52517;DHT22;59374;53.210;5.726;2022-08-24T18:21:51;25.50;99.90
52517;DHT22;59374;53.210;5.726;2022-08-24T18:24:17;25.40;99.90
52517;DHT22;59374;53.210;5.726;2022-08-24T18:26:43;25.20;99.90
52517;DHT22;59374;53.210;5.726;2022-08-24T18:29:14;25.00;99.90
52517;DHT22;59374;53.210;5.726;2022-08-24T18:31:41;24.80;99.90
52517;DHT22;59374;53.210;5.726;2022-08-24T18:34:08;24.60;99.90
52517;DHT22;59374;53.210;5.726;2022-08-24T18:36:34;24.40;99.90
52517;DHT22;59374;53.210;5.726;2022-08-24T18:39:00;24.30;99.90
52517;DHT22;59374;53.210;5.726;2022-08-24T18:41:31;24.10;99.90
52517;DHT22;59374;53.210;5.726;2022-08-24T18:43:57;24.00;99.90
52517;DHT22;59374;53.210;5.726;2022-08-24T18:46:25;23.90;99.90
52517;DHT22;59374;53.210;5.726;2022-08-24T18:48:50;23.80;99.90
52517;DHT22;59374;53.210;5.726;2022-08-24T18:51:17;23.60;99.90
52517;DHT22;59374;53.210;5.726;2022-08-24T18:53:44;23.50;99.90
52517;DHT22;59374;53.210;5.726;2022-08-24T18:56:10;23.40;99.90
52517;DHT22;59374;53.210;5.726;2022-08-24T18:58:36;23.30;99.90
52517;DHT22;59374;53.210;5.726;2022-08-24T19:01:05;23.20;99.90
52517;DHT22;59374;53.210;5.726;2022-08-24T19:03:31;23.10;99.90
52517;DHT22;59374;53.210;5.726;2022-08-24T19:05:57;23.00;99.90
52517;DHT22;59374;53.210;5.726;2022-08-24T19:08:23;22.90;99.90
52517;DHT22;59374;53.210;5.726;2022-08-24T19:10:48;22.90;99.90
52517;DHT22;59374;53.210;5.726;2022-08-24T19:13:15;22.80;99.90
52517;DHT22;59374;53.210;5.726;2022-08-24T19:15:43;22.80;99.90
52517;DHT22;59374;53.210;5.726;2022-08-24T19:18:17;22.70;99.90
52517;DHT22;59374;53.210;5.726;2022-08-24T19:20:46;22.70;99.90
52517;DHT22;59374;53.210;5.726;2022-08-24T19:23:20;22.60;99.90
52517;DHT22;59374;53.210;5.726;2022-08-24T19:25:47;22.60;99.90
52517;DHT22;59374;53.210;5.726;2022-08-24T19:28:13;22.50;99.90
52517;DHT22;59374;53.210;5.726;2022-08-24T19:30:39;22.50;99.90
52517;DHT22;59374;53.210;5.726;2022-08-24T19:33:07;22.40;99.90
52517;DHT22;59374;53.210;5.726;2022-08-24T19:35:34;22.30;99.90
52517;DHT22;59374;53.210;5.726;2022-08-24T19:38:00;22.20;99.90